Time;durP1;ratioP1;P1;durP2;ratioP2;P2;SDS_P1;SDS_P2;PMS_P1;PMS_P2;Temp;Humidity;BMP_temperature;BMP_pressure;BME280_temperature;BME280_humidity;BME280_pressure;Samples;Min_cycle;Max_cycle;Signal;HPM_P1;HPM_P2
2023/12/07 00:09:05;;;;;;;0.10;0.00;;;-1.20;99.90;;;;;;20911474;28;20029;-48
2023/12/07 00:19:10;;;;;;;0.10;0.00;;;-1.30;99.90;;;;;;20972021;28;20486;-52
2023/12/07 00:29:12;;;;;;;0.10;0.00;;;-1.60;99.90;;;;;;20959656;28;20122;-46
2023/12/07 00:39:13;;;;;;;0.10;0.00;;;-1.70;99.90;;;;;;20909185;28;20029;-51
2023/12/07 00:49:15;;;;;;;0.22;0.00;;;-1.80;99.90;;;;;;20907591;28;20029;-54
2023/12/07 00:59:17;;;;;;;0.00;0.00;;;-1.90;99.90;;;;;;20907602;28;20090;-50
2023/12/07 01:09:18;;;;;;;0.20;0.00;;;-1.90;99.90;;;;;;20907068;28;20045;-47
2023/12/07 01:19:21;;;;;;;0.00;0.00;;;-1.80;99.90;;;;;;20961126;28;20074;-49
2023/12/07 01:29:23;;;;;;;0.10;0.00;;;-1.70;99.90;;;;;;20955377;28;20556;-51
2023/12/07 01:39:24;;;;;;;0.00;0.00;;;-1.80;99.90;;;;;;20924670;28;20028;-46
2023/12/07 01:49:26;;;;;;;0.03;0.00;;;-1.70;99.90;;;;;;20912708;28;20033;-55
2023/12/07 01:59:28;;;;;;;0.22;0.00;;;-1.70;99.90;;;;;;20887376;28;20414;-46
2023/12/07 02:09:31;;;;;;;0.00;0.00;;;-1.70;99.90;;;;;;20917998;28;20043;-46
2023/12/07 02:19:51;;;;;;;0.00;0.00;;;-1.80;99.90;;;;;;20967910;28;20049;-47
2023/12/07 02:29:53;;;;;;;0.15;0.00;;;-1.80;99.90;;;;;;20963738;28;20370;-49
2023/12/07 02:39:56;;;;;;;0.00;0.00;;;-1.50;98.90;;;;;;20918643;28;20064;-51
2023/12/07 02:49:58;;;;;;;0.00;0.00;;;-1.60;99.00;;;;;;20918830;28;20036;-47
2023/12/07 03:00:01;;;;;;;0.00;0.00;;;-1.80;99.40;;;;;;20915618;28;20397;-53
2023/12/07 03:10:03;;;;;;;0.00;0.00;;;-1.30;97.90;;;;;;20999057;28;20032;-54
2023/12/07 03:20:05;;;;;;;0.10;0.00;;;-1.10;97.70;;;;;;20977132;28;20040;-52
2023/12/07 03:30:08;;;;;;;0.10;0.00;;;-1.30;98.20;;;;;;20956981;28;20032;-51
2023/12/07 03:40:11;;;;;;;0.15;0.00;;;-1.70;99.90;;;;;;20912233;28;20075;-47
2023/12/07 03:50:12;;;;;;;0.00;0.00;;;-1.60;99.70;;;;;;20910270;28;20033;-50
2023/12/07 04:00:14;;;;;;;0.00;0.00;;;-1.30;99.00;;;;;;20909414;28;20025;-47
2023/12/07 04:10:16;;;;;;;0.75;0.00;;;-1.40;99.30;;;;;;20894474;28;20486;-54
2023/12/07 04:20:18;;;;;;;0.22;0.00;;;-1.60;99.30;;;;;;20941584;28;20490;-54
2023/12/07 04:30:19;;;;;;;0.20;0.00;;;-1.30;99.40;;;;;;20989824;28;20037;-47
2023/12/07 04:40:21;;;;;;;1.38;0.03;;;-1.20;99.40;;;;;;20988944;28;20538;-47
2023/12/07 04:50:23;;;;;;;0.13;0.00;;;-1.30;99.50;;;;;;20986155;28;20032;-50
2023/12/07 05:00:25;;;;;;;0.00;0.00;;;-1.20;99.40;;;;;;20990193;28;20086;-48
2023/12/07 05:10:27;;;;;;;0.20;0.00;;;-1.00;99.60;;;;;;20988132;28;20503;-45
2023/12/07 05:20:29;;;;;;;0.30;0.10;;;-1.10;99.70;;;;;;20982633;28;20056;-52
2023/12/07 05:30:30;;;;;;;0.00;0.00;;;-0.80;98.80;;;;;;20983450;28;20024;-48
2023/12/07 05:40:33;;;;;;;0.00;0.00;;;-0.90;98.70;;;;;;20980785;28;20106;-46
2023/12/07 05:50:39;;;;;;;0.00;0.00;;;-1.00;98.40;;;;;;20978852;28;20036;-47
2023/12/07 06:00:40;;;;;;;0.00;0.00;;;-1.10;98.40;;;;;;20996410;28;20032;-46
2023/12/07 06:10:42;;;;;;;0.00;0.00;;;-1.20;97.50;;;;;;20982862;28;20067;-48
2023/12/07 06:20:44;;;;;;;0.00;0.00;;;-1.10;97.90;;;;;;21000389;28;20037;-48
2023/12/07 06:30:46;;;;;;;0.08;0.00;;;-1.30;97.60;;;;;;20990953;28;20074;-52
2023/12/07 06:40:50;;;;;;;0.00;0.00;;;-1.40;97.80;;;;;;20998404;28;20028;-47
2023/12/07 06:50:52;;;;;;;0.08;0.00;;;-1.30;96.60;;;;;;20998414;28;20437;-54
2023/12/07 07:00:53;;;;;;;0.05;0.00;;;-1.30;96.80;;;;;;20997143;28;20028;-49
2023/12/07 07:10:56;;;;;;;1.27;0.00;;;-1.00;96.30;;;;;;20996034;28;20037;-49
2023/12/07 07:20:58;;;;;;;0.00;0.00;;;-0.80;96.30;;;;;;20995870;28;20048;-51
2023/12/07 07:31:00;;;;;;;0.00;0.00;;;-0.60;96.30;;;;;;20994779;28;20028;-46
2023/12/07 07:41:01;;;;;;;0.00;0.00;;;-0.50;95.60;;;;;;20990947;28;20028;-49
2023/12/07 07:51:04;;;;;;;0.00;0.00;;;-0.10;95.70;;;;;;20993583;28;20036;-52
2023/12/07 08:01:06;;;;;;;0.00;0.00;;;0.50;94.10;;;;;;20988440;28;20039;-54
2023/12/07 08:11:08;;;;;;;0.00;0.00;;;1.00;94.00;;;;;;20969947;28;20475;-48
2023/12/07 08:21:19;;;;;;;1.75;0.10;;;1.40;93.70;;;;;;21009949;28;20048;-54
2023/12/07 08:31:23;;;;;;;1.15;0.38;;;1.70;93.20;;;;;;21072481;28;20031;-51
2023/12/07 08:41:24;;;;;;;0.00;0.00;;;1.80;92.20;;;;;;21072638;28;20077;-51
2023/12/07 08:51:26;;;;;;;0.00;0.00;;;2.10;91.30;;;;;;21072722;28;20446;-54
2023/12/07 09:01:30;;;;;;;0.28;0.00;;;2.40;90.40;;;;;;21014825;28;20082;-50
2023/12/07 09:11:32;;;;;;;0.00;0.00;;;2.60;89.40;;;;;;20987515;28;20032;-48
2023/12/07 09:21:34;;;;;;;0.10;0.00;;;3.00;89.60;;;;;;20934845;28;20045;-46
2023/12/07 09:31:35;;;;;;;0.00;0.00;;;3.30;85.40;;;;;;20911550;28;20024;-50
2023/12/07 09:41:41;;;;;;;0.10;0.00;;;3.30;87.90;;;;;;20957147;28;20041;-50
2023/12/07 09:51:44;;;;;;;0.00;0.00;;;3.40;84.80;;;;;;20920105;28;20446;-48
2023/12/07 10:01:46;;;;;;;0.00;0.00;;;3.80;85.90;;;;;;20918857;28;20037;-47
2023/12/07 10:11:48;;;;;;;0.30;0.00;;;4.10;83.50;;;;;;20935408;28;20479;-52
2023/12/07 10:21:51;;;;;;;0.00;0.00;;;4.40;80.60;;;;;;20899864;28;20049;-49
2023/12/07 10:32:02;;;;;;;0.00;0.00;;;4.60;82.10;;;;;;20917565;28;20470;-54
2023/12/07 10:42:06;;;;;;;;;;;4.90;82.60;;;;;;20915603;28;20037;-53
2023/12/07 10:52:15;;;;;;;0.10;0.10;;;4.90;80.20;;;;;;20945993;28;19920;-53
2023/12/07 11:02:18;;;;;;;0.00;0.00;;;5.50;84.40;;;;;;20931269;28;20098;-53
2023/12/07 11:12:56;;;;;;;0.88;0.10;;;6.20;82.30;;;;;;20913413;28;20029;-51
2023/12/07 11:22:59;;;;;;;0.40;0.10;;;6.20;85.50;;;;;;20990021;28;20136;-51
2023/12/07 11:33:06;;;;;;;0.20;0.05;;;6.50;85.70;;;;;;20975280;28;20041;-49
2023/12/07 11:43:16;;;;;;;0.35;0.10;;;6.70;80.00;;;;;;20992505;28;20041;-52
2023/12/07 11:53:24;;;;;;;0.53;0.10;;;5.90;78.80;;;;;;20991913;28;20035;-51
2023/12/07 12:03:27;;;;;;;0.45;0.10;;;5.30;80.00;;;;;;20990757;28;20070;-47
2023/12/07 12:13:33;;;;;;;0.40;0.20;;;5.20;82.90;;;;;;20983615;28;20029;-50
2023/12/07 12:23:36;;;;;;;0.10;0.10;;;6.10;86.10;;;;;;20990996;28;20044;-50
2023/12/07 12:33:38;;;;;;;0.20;0.17;;;6.10;82.60;;;;;;20989194;28;20044;-50
2023/12/07 12:43:40;;;;;;;0.98;0.10;;;6.00;84.20;;;;;;20987309;28;20029;-52
2023/12/07 12:53:49;;;;;;;0.40;0.10;;;5.80;83.00;;;;;;20814203;28;20037;-54
2023/12/07 13:03:51;;;;;;;0.30;0.10;;;5.90;81.80;;;;;;20882597;28;20040;-55
2023/12/07 13:13:53;;;;;;;0.30;0.10;;;5.50;84.20;;;;;;20871407;28;20040;-54
2023/12/07 13:23:55;;;;;;;0.38;0.10;;;4.90;85.90;;;;;;20969195;28;20048;-52
2023/12/07 13:33:57;;;;;;;0.40;0.10;;;4.40;85.50;;;;;;20986615;28;20082;-47
2023/12/07 13:44:01;;;;;;;0.10;0.10;;;4.00;86.00;;;;;;20986427;28;20102;-49
2023/12/07 13:54:07;;;;;;;0.32;0.10;;;3.60;87.80;;;;;;20986284;28;20082;-52
2023/12/07 14:04:09;;;;;;;0.28;0.05;;;3.20;88.90;;;;;;20985587;28;20036;-48
2023/12/07 14:14:13;;;;;;;0.50;0.20;;;2.90;90.50;;;;;;20984854;28;20467;-54
2023/12/07 14:24:14;;;;;;;0.77;0.30;;;2.80;90.10;;;;;;20999509;28;20040;-55
2023/12/07 14:34:19;;;;;;;1.20;0.50;;;2.50;91.00;;;;;;21000348;28;20036;-54
2023/12/07 14:44:21;;;;;;;1.63;0.80;;;2.10;92.10;;;;;;20999742;28;20106;-55
2023/12/07 14:54:23;;;;;;;1.90;0.60;;;1.60;94.90;;;;;;20998253;28;20033;-53
2023/12/07 15:04:24;;;;;;;2.13;0.30;;;1.20;96.10;;;;;;20996669;28;20029;-52
2023/12/07 15:14:26;;;;;;;0.50;0.30;;;0.40;96.50;;;;;;20995864;28;20028;-52
2023/12/07 15:24:28;;;;;;;1.67;0.75;;;-0.30;97.80;;;;;;20995849;28;20052;-52
2023/12/07 15:34:30;;;;;;;1.17;0.50;;;-0.90;99.90;;;;;;20992816;28;20044;-50
2023/12/07 15:44:32;;;;;;;1.42;0.80;;;-1.40;99.90;;;;;;20949774;28;20036;-49
2023/12/07 15:54:34;;;;;;;1.20;0.50;;;-1.70;99.90;;;;;;20993823;28;20032;-53
2023/12/07 16:04:36;;;;;;;1.48;0.50;;;-2.00;99.90;;;;;;20991980;28;20028;-55
2023/12/07 16:14:39;;;;;;;1.40;0.30;;;-2.10;99.90;;;;;;20958370;28;20590;-54
2023/12/07 16:24:43;;;;;;;1.27;0.50;;;-2.30;99.90;;;;;;20980496;28;20480;-53
2023/12/07 16:34:45;;;;;;;0.88;0.20;;;-2.20;99.90;;;;;;20914061;28;20410;-53
2023/12/07 16:44:51;;;;;;;0.50;0.20;;;-2.40;99.90;;;;;;20908472;28;20029;-55
2023/12/07 16:54:56;;;;;;;0.65;0.20;;;-2.40;99.90;;;;;;20908522;28;20029;-51
2023/12/07 17:05:02;;;;;;;0.85;0.30;;;-2.40;99.90;;;;;;20908798;28;20103;-53
2023/12/07 17:15:05;;;;;;;0.50;0.20;;;-2.50;99.90;;;;;;20889004;28;20029;-55
2023/12/07 17:25:07;;;;;;;0.10;0.10;;;-2.70;99.90;;;;;;20902586;28;20045;-52
2023/12/07 17:35:11;;;;;;;0.55;0.20;;;-2.70;99.90;;;;;;20906463;28;20532;-50
2023/12/07 17:45:13;;;;;;;0.65;0.20;;;-2.70;99.90;;;;;;20906158;28;20371;-53
2023/12/07 17:55:15;;;;;;;0.60;0.25;;;-2.70;99.90;;;;;;20915047;28;20099;-49
2023/12/07 18:05:18;;;;;;;0.30;0.20;;;-2.80;99.90;;;;;;20921423;28;20095;-54
2023/12/07 18:15:19;;;;;;;0.68;0.30;;;-2.90;99.90;;;;;;20920530;28;20033;-50
2023/12/07 18:25:21;;;;;;;1.70;0.63;;;-2.80;99.90;;;;;;20994329;28;20052;-49
2023/12/07 18:35:23;;;;;;;1.75;0.95;;;-2.80;99.90;;;;;;20919330;28;20410;-50
2023/12/07 18:45:25;;;;;;;2.08;1.17;;;-2.90;99.90;;;;;;20918149;28;20032;-53
2023/12/07 18:55:27;;;;;;;1.88;0.88;;;-3.10;99.90;;;;;;20922367;28;20029;-48
2023/12/07 19:05:29;;;;;;;2.42;1.30;;;-3.10;99.90;;;;;;20916678;28;20025;-53
2023/12/07 19:15:31;;;;;;;3.03;1.20;;;-3.00;99.90;;;;;;20938614;28;20036;-49
2023/12/07 19:25:32;;;;;;;1.73;0.65;;;-3.00;99.90;;;;;;20994878;28;20044;-46
2023/12/07 19:35:34;;;;;;;4.15;1.48;;;-2.90;99.90;;;;;;20918767;28;20033;-47
2023/12/07 19:45:37;;;;;;;2.45;1.20;;;-2.90;99.90;;;;;;20952355;28;20036;-52
2023/12/07 19:55:38;;;;;;;4.70;2.10;;;-3.00;99.90;;;;;;20913998;28;20028;-50
2023/12/07 20:05:40;;;;;;;2.17;1.17;;;-3.00;99.90;;;;;;20953593;28;20039;-48
2023/12/07 20:15:42;;;;;;;2.53;1.38;;;-3.30;99.90;;;;;;20952511;28;20033;-50
2023/12/07 20:25:44;;;;;;;4.35;1.60;;;-3.30;99.90;;;;;;20891178;28;20052;-52
2023/12/07 20:35:46;;;;;;;3.70;1.73;;;-3.20;99.90;;;;;;20910075;28;20033;-47
2023/12/07 20:45:48;;;;;;;4.07;1.25;;;-3.40;99.90;;;;;;20873287;28;20033;-54
2023/12/07 20:55:49;;;;;;;2.42;1.20;;;-3.40;99.90;;;;;;20913462;28;20029;-52
2023/12/07 21:05:51;;;;;;;3.22;1.20;;;-3.40;99.90;;;;;;20907867;28;20478;-54
2023/12/07 21:15:53;;;;;;;1.73;0.70;;;-3.50;99.90;;;;;;20932901;28;20048;-46
2023/12/07 21:25:55;;;;;;;1.15;0.50;;;-3.50;99.90;;;;;;20991802;28;20083;-53
2023/12/07 21:35:58;;;;;;;1.00;0.47;;;-3.50;99.90;;;;;;21016503;28;20025;-54
2023/12/07 21:45:59;;;;;;;1.13;0.50;;;-3.40;99.90;;;;;;21013416;28;20024;-47
2023/12/07 21:56:01;;;;;;;0.63;0.45;;;-3.40;99.90;;;;;;21004024;28;20086;-54
2023/12/07 22:06:03;;;;;;;0.73;0.35;;;-3.10;99.90;;;;;;21016097;28;20033;-53
2023/12/07 22:16:05;;;;;;;0.80;0.40;;;-2.70;99.90;;;;;;21015346;28;20028;-47
2023/12/07 22:26:08;;;;;;;0.95;0.50;;;-2.50;99.90;;;;;;20970549;28;20452;-51
2023/12/07 22:36:14;;;;;;;1.25;0.30;;;-2.40;99.90;;;;;;20929174;28;20589;-47
2023/12/07 22:46:16;;;;;;;2.42;0.40;;;-2.40;99.90;;;;;;20891806;28;20029;-54
2023/12/07 22:56:17;;;;;;;0.55;0.30;;;-2.70;99.90;;;;;;20898380;28;20029;-54
2023/12/07 23:06:19;;;;;;;0.85;0.30;;;-3.00;99.90;;;;;;20884362;28;20040;-49
2023/12/07 23:16:25;;;;;;;0.98;0.30;;;-3.00;99.90;;;;;;20894803;28;20063;-50
2023/12/07 23:26:27;;;;;;;0.63;0.30;;;-3.40;99.90;;;;;;20910149;28;20052;-54
2023/12/07 23:36:30;;;;;;;0.60;0.22;;;-3.60;99.90;;;;;;20872634;28;20044;-50
2023/12/07 23:46:32;;;;;;;1.02;0.28;;;-3.60;99.90;;;;;;20913908;28;20501;-50
2023/12/07 23:56:34;;;;;;;0.88;0.40;;;-3.50;99.90;;;;;;20850170;28;20079;-54
